Time;durP1;ratioP1;P1;durP2;ratioP2;P2;SDS_P1;SDS_P2;PMS_P1;PMS_P2;Temp;Humidity;BMP_temperature;BMP_pressure;BME280_temperature;BME280_humidity;BME280_pressure;Samples;Min_cycle;Max_cycle;Signal;HPM_P1;HPM_P2
2023/06/23 20:00:24;;;;;;;;;7.50;4.25;;;;;24.94;49.49;101810.66;5117185;27;45389;-68
2023/06/23 20:02:49;;;;;;;;;1.00;0.50;;;;;24.94;43.71;101813.31;5086663;27;45605;-69
2023/06/23 20:05:14;;;;;;;;;4.50;4.25;;;;;24.90;40.67;101825.22;5091993;27;52684;-68
2023/06/23 20:07:40;;;;;;;;;7.75;3.00;;;;;24.91;42.92;101816.22;5092190;27;45302;-68
2023/06/23 20:10:06;;;;;;;;;3.50;3.25;;;;;24.95;42.73;101829.28;5090135;27;61494;-70
2023/06/23 20:12:31;;;;;;;;;5.00;4.00;;;;;24.96;43.95;101833.66;5096810;27;45635;-76
2023/06/23 20:14:57;;;;;;;;;8.00;4.75;;;;;24.95;44.99;101844.50;5087218;27;45471;-77
2023/06/23 20:17:23;;;;;;;;;6.00;6.00;;;;;24.96;45.71;101847.06;5093318;27;67696;-75
2023/06/23 20:19:49;;;;;;;;;5.50;4.00;;;;;24.94;46.13;101842.78;5085037;27;45992;-73
2023/06/23 20:22:15;;;;;;;;;5.25;4.25;;;;;24.91;46.33;101857.22;5090400;27;45477;-74
2023/06/23 20:24:40;;;;;;;;;7.25;5.50;;;;;24.90;46.79;101855.53;5088371;27;45490;-73
2023/06/23 20:27:06;;;;;;;;;7.00;4.00;;;;;24.85;46.91;101860.34;5077240;27;45497;-76
2023/06/23 20:29:31;;;;;;;;;5.00;4.00;;;;;24.79;47.23;101863.47;5093788;27;46333;-75
2023/06/23 20:31:57;;;;;;;;;5.00;4.25;;;;;24.76;47.44;101861.00;5086222;27;46978;-74
2023/06/23 20:34:22;;;;;;;;;3.25;3.25;;;;;24.75;47.50;101869.97;5090375;27;45664;-78
2023/06/23 20:36:48;;;;;;;;;4.75;2.25;;;;;24.70;47.55;101877.47;5063621;27;45483;-75
2023/06/23 20:39:13;;;;;;;;;3.50;3.00;;;;;24.61;47.55;101876.28;5087699;27;45468;-76
2023/06/23 20:41:39;;;;;;;;;3.50;3.50;;;;;24.56;47.51;101879.28;5126228;27;51693;-76
2023/06/23 20:44:04;;;;;;;;;3.25;2.75;;;;;24.49;47.66;101879.75;5087094;27;45407;-75
2023/06/23 20:46:30;;;;;;;;;4.25;3.00;;;;;24.44;47.96;101883.59;5105521;27;75350;-76
2023/06/23 20:48:56;;;;;;;;;3.00;2.00;;;;;24.39;48.27;101890.22;5089297;27;45374;-76
2023/06/23 20:51:21;;;;;;;;;5.00;3.25;;;;;24.32;48.32;101884.44;5094277;27;45436;-76
2023/06/23 20:53:49;;;;;;;;;7.25;4.25;;;;;24.26;48.58;101891.06;5073000;27;62871;-76
2023/06/23 20:56:15;;;;;;;;;3.75;2.75;;;;;24.20;49.07;101886.09;5090012;27;45463;-75
2023/06/23 20:58:40;;;;;;;;;2.50;2.50;;;;;24.15;49.12;101892.72;5066855;27;46431;-75
2023/06/23 21:01:06;;;;;;;;;6.25;2.75;;;;;24.09;49.08;101902.00;5097169;27;45520;-73
2023/06/23 21:03:31;;;;;;;;;3.50;3.00;;;;;24.03;49.21;101897.94;5075201;27;45315;-78
2023/06/23 21:05:56;;;;;;;;;4.00;2.25;;;;;23.95;49.50;101891.34;5087312;27;53389;-78
2023/06/23 21:08:22;;;;;;;;;5.50;5.25;;;;;23.90;49.82;101896.16;5074063;27;47524;-77
2023/06/23 21:10:47;;;;;;;;;3.75;3.75;;;;;23.79;49.77;101888.78;5063499;28;45885;-78
2023/06/23 21:13:16;;;;;;;;;4.75;3.75;;;;;23.77;50.01;101896.91;5072164;28;45667;-78
2023/06/23 21:15:41;;;;;;;;;4.25;3.00;;;;;23.74;50.42;101891.75;5078939;27;45262;-78
2023/06/23 21:18:07;;;;;;;;;5.50;5.25;;;;;23.61;50.49;101890.84;5079039;27;46564;-78
2023/06/23 21:20:32;;;;;;;;;4.75;4.75;;;;;23.61;50.36;101901.53;5074410;27;45305;-78
2023/06/23 21:22:57;;;;;;;;;5.25;4.00;;;;;23.55;50.65;101900.09;5075082;27;45560;-77
2023/06/23 21:25:23;;;;;;;;;7.00;4.25;;;;;23.47;50.56;101902.41;5077917;27;63739;-78
2023/06/23 21:27:48;;;;;;;;;4.00;4.00;;;;;23.40;50.32;101901.06;5079043;27;45356;-77
2023/06/23 21:30:14;;;;;;;;;4.50;4.50;;;;;23.34;50.80;101896.09;5080341;27;45303;-77
2023/06/23 21:32:40;;;;;;;;;7.25;6.00;;;;;23.27;50.81;101906.31;5067846;27;45430;-77
2023/06/23 21:35:06;;;;;;;;;4.25;3.00;;;;;23.20;50.65;101903.16;5111120;27;45453;-77
2023/06/23 21:37:31;;;;;;;;;5.75;4.50;;;;;23.13;50.70;101899.16;5072366;28;45487;-77
2023/06/23 21:39:56;;;;;;;;;3.50;2.25;;;;;23.06;50.73;101903.16;5076622;28;71924;-77
2023/06/23 21:42:22;;;;;;;;;5.75;3.25;;;;;23.00;50.81;101903.47;5073819;28;45398;-77
2023/06/23 21:44:47;;;;;;;;;3.50;3.50;;;;;22.91;51.04;101904.91;5075128;27;52849;-77
2023/06/23 21:47:13;;;;;;;;;7.00;4.75;;;;;22.87;51.13;101906.03;5073419;27;45532;-77
2023/06/23 21:49:39;;;;;;;;;5.25;4.75;;;;;22.87;50.82;101906.03;5074254;28;45692;-77
2023/06/23 21:52:06;;;;;;;;;4.50;3.25;;;;;22.85;50.93;101908.81;5072401;27;45465;-77
2023/06/23 21:54:31;;;;;;;;;4.50;3.25;;;;;22.81;51.01;101911.78;5087500;27;45521;-78
2023/06/23 21:56:57;;;;;;;;;4.75;3.75;;;;;22.76;51.41;101909.38;5071298;28;48444;-77
2023/06/23 21:59:22;;;;;;;;;4.75;4.00;;;;;22.74;51.34;101916.59;5079048;27;45343;-77
2023/06/23 22:01:48;;;;;;;;;5.00;4.25;;;;;22.66;50.87;101903.69;5076668;27;46112;-77
2023/06/23 22:04:13;;;;;;;;;1.25;1.25;;;;;22.64;51.41;101902.09;5077227;27;45377;-78
2023/06/23 22:06:39;;;;;;;;;6.00;5.50;;;;;22.62;50.99;101904.00;5061258;28;46296;-77
2023/06/23 22:09:04;;;;;;;;;6.50;4.25;;;;;22.58;50.97;101913.13;5063299;28;45422;-76
2023/06/23 22:11:30;;;;;;;;;5.25;4.50;;;;;22.56;51.15;101916.75;5077181;28;45878;-77
2023/06/23 22:13:56;;;;;;;;;6.00;3.50;;;;;22.52;51.27;101925.00;5072820;27;45459;-77
2023/06/23 22:16:21;;;;;;;;;7.25;5.75;;;;;22.40;51.14;101907.03;5073440;28;47023;-77
2023/06/23 22:18:47;;;;;;;;;5.75;5.00;;;;;22.36;51.17;101909.91;5055846;28;45948;-77
2023/06/23 22:21:12;;;;;;;;;7.00;5.25;;;;;22.40;50.92;101925.72;5072309;27;45506;-77
2023/06/23 22:23:37;;;;;;;;;7.00;5.50;;;;;22.26;51.09;101905.19;5076291;27;45699;-77
2023/06/23 22:26:06;;;;;;;;;10.50;5.25;;;;;22.28;51.04;101917.50;5072518;27;46941;-77
2023/06/23 22:28:31;;;;;;;;;5.25;5.00;;;;;22.23;51.42;101903.53;5077385;27;45530;-77
2023/06/23 22:30:57;;;;;;;;;4.25;3.50;;;;;22.24;50.72;101923.94;5093594;27;55393;-77
2023/06/23 22:33:23;;;;;;;;;4.50;4.50;;;;;22.24;50.67;101923.03;5076030;28;45588;-77
2023/06/23 22:35:49;;;;;;;;;5.25;4.00;;;;;22.17;50.79;101918.06;5057979;28;47354;-76
2023/06/23 22:38:17;;;;;;;;;5.00;4.00;;;;;22.08;50.89;101915.06;5073869;27;45525;-76
2023/06/23 22:40:43;;;;;;;;;5.00;4.50;;;;;22.09;51.06;101919.47;5062238;28;45338;-76
2023/06/23 22:43:11;;;;;;;;;8.50;5.00;;;;;22.07;50.98;101924.88;5077007;28;45367;-77
2023/06/23 22:45:37;;;;;;;;;7.50;5.00;;;;;21.94;51.63;101914.06;5077369;27;46643;-78
2023/06/23 22:48:02;;;;;;;;;6.00;3.50;;;;;21.93;51.43;101911.47;5062353;28;45789;-78
2023/06/23 22:50:28;;;;;;;;;5.25;4.25;;;;;22.00;51.48;101927.00;5090752;27;45489;-77
2023/06/23 22:52:54;;;;;;;;;4.75;4.75;;;;;21.91;51.83;101919.53;5075332;27;45427;-77
2023/06/23 22:55:19;;;;;;;;;5.75;4.25;;;;;21.86;51.78;101908.28;5078384;28;46595;-77
2023/06/23 22:57:44;;;;;;;;;6.25;4.00;;;;;21.79;51.84;101905.09;5073384;28;62736;-77
2023/06/23 23:00:11;;;;;;;;;5.00;4.50;;;;;21.88;51.40;101924.19;5076407;27;51294;-77
2023/06/23 23:02:37;;;;;;;;;7.25;5.50;;;;;21.86;51.96;101916.28;5077281;28;45580;-77
2023/06/23 23:05:03;;;;;;;;;8.75;7.75;;;;;21.86;51.88;101926.94;5076599;27;46729;-77
2023/06/23 23:07:28;;;;;;;;;18.25;12.00;;;;;21.81;52.33;101929.00;5060612;28;45881;-76
2023/06/23 23:09:54;;;;;;;;;10.25;8.25;;;;;21.79;52.00;101929.06;5075044;27;45386;-77
2023/06/23 23:12:19;;;;;;;;;9.00;7.75;;;;;21.77;51.71;101924.78;5078921;28;45472;-78
2023/06/23 23:14:45;;;;;;;;;6.00;5.00;;;;;21.78;52.05;101929.19;5075588;27;46255;-78
2023/06/23 23:17:13;;;;;;;;;8.50;7.75;;;;;21.75;51.83;101924.00;5077317;28;45344;-77
2023/06/23 23:19:39;;;;;;;;;6.50;6.50;;;;;21.76;51.69;101923.06;5059861;28;45464;-78
2023/06/23 23:22:06;;;;;;;;;6.00;5.75;;;;;21.77;52.05;101925.63;5094089;27;45528;-75
2023/06/23 23:24:33;;;;;;;;;5.50;3.25;;;;;21.69;51.95;101911.00;5074096;28;46067;-77
2023/06/23 23:26:59;;;;;;;;;7.00;5.25;;;;;21.66;51.93;101908.53;5092620;27;45532;-77
2023/06/23 23:29:25;;;;;;;;;6.00;4.50;;;;;21.61;51.74;101914.13;5072581;27;45541;-77
2023/06/23 23:31:57;;;;;;;;;6.00;5.00;;;;;21.60;51.44;101915.03;5079633;27;45576;-78
2023/06/23 23:34:31;;;;;;;;;6.25;4.75;;;;;21.64;51.66;101926.38;5055667;28;48034;-78
2023/06/23 23:37:00;;;;;;;;;5.00;4.00;;;;;21.59;51.94;101932.84;5077020;27;45370;-78
2023/06/23 23:39:26;;;;;;;;;6.00;4.00;;;;;21.60;52.01;101926.59;5078198;28;45417;-76
2023/06/23 23:41:52;;;;;;;;;5.75;3.50;;;;;21.57;51.46;101920.56;5076719;28;45632;-78
2023/06/23 23:44:18;;;;;;;;;6.50;4.00;;;;;21.45;52.12;101899.88;5077361;27;45470;-77
2023/06/23 23:46:43;;;;;;;;;5.00;3.00;;;;;21.55;51.86;101925.97;5056802;28;45534;-78
2023/06/23 23:49:09;;;;;;;;;7.00;3.00;;;;;21.55;51.92;101928.63;5106894;27;45513;-78
2023/06/23 23:51:34;;;;;;;;;4.00;4.00;;;;;21.51;51.82;101920.88;5075926;28;65136;-78
2023/06/23 23:53:59;;;;;;;;;4.00;3.50;;;;;21.50;52.00;101921.84;5070022;28;48172;-78
2023/06/23 23:56:25;;;;;;;;;7.00;4.50;;;;;21.49;52.03;101928.94;5055617;28;45300;-77
2023/06/23 23:58:51;;;;;;;;;4.75;4.75;;;;;21.50;52.07;101924.50;5058186;28;45563;-78
